Time;durP1;ratioP1;P1;durP2;ratioP2;P2;SDS_P1;SDS_P2;PMS_P1;PMS_P2;Temp;Humidity;BMP_temperature;BMP_pressure;BME280_temperature;BME280_humidity;BME280_pressure;Samples;Min_cycle;Max_cycle;Signal;HPM_P1;HPM_P2
2023/01/07 00:00:01;;;;;;;;;;;;;;;11.05;64.39;101762.84;4985411;28;19918;-74
2023/01/07 00:02:45;;;;;;;;;;;;;;;11.01;64.75;101759.91;4982602;28;20297;-74
2023/01/07 00:05:30;;;;;;;;;;;;;;;10.65;65.94;101756.00;4983105;28;20409;-74
2023/01/07 00:08:14;;;;;;;;;;;;;;;10.52;67.16;101748.53;4984236;28;19918;-74
2023/01/07 00:11:00;;;;;;;;;;;;;;;10.40;68.05;101748.13;4983858;28;20392;-74
2023/01/07 00:13:45;;;;;;;;;;;;;;;10.16;68.89;101748.09;4984215;28;20313;-74
2023/01/07 00:16:30;;;;;;;;;;;;;;;10.19;68.94;101748.34;4983474;28;19918;-74
2023/01/07 00:19:15;;;;;;;;;;;;;;;10.26;68.38;101750.72;4987185;28;19918;-73
2023/01/07 00:22:00;;;;;;;;;;;;;;;10.33;68.18;101739.50;4984459;28;19930;-74
2023/01/07 00:24:44;;;;;;;;;;;;;;;10.39;68.33;101746.50;4981938;28;19917;-74
2023/01/07 00:27:29;;;;;;;;;;;;;;;10.34;68.21;101750.09;4976117;28;19921;-74
2023/01/07 00:30:13;;;;;;;;;;;;;;;10.39;68.21;101741.88;4988628;28;19917;-74
2023/01/07 00:33:05;;;;;;;;;;;;;;;10.39;68.47;101741.06;5001347;28;19917;-74
2023/01/07 00:35:57;;;;;;;;;;;;;;;10.36;68.02;101742.47;4993705;28;19918;-74
2023/01/07 00:38:41;;;;;;;;;;;;;;;10.42;68.17;101741.28;4995860;28;19917;-74
2023/01/07 00:41:26;;;;;;;;;;;;;;;10.55;67.65;101740.63;5001767;28;19921;-74
2023/01/07 00:44:11;;;;;;;;;;;;;;;10.72;67.54;101737.41;5012440;28;19918;-74
2023/01/07 00:46:55;;;;;;;;;;;;;;;10.76;67.30;101730.31;5012255;28;19917;-74
2023/01/07 00:49:40;;;;;;;;;;;;;;;10.80;67.15;101730.53;5012200;28;19917;-74
2023/01/07 00:52:24;;;;;;;;;;;;;;;10.78;66.96;101725.38;5012527;28;19917;-74
2023/01/07 00:55:09;;;;;;;;;;;;;;;10.30;68.96;101719.16;5012500;28;20312;-74
2023/01/07 00:57:55;;;;;;;;;;;;;;;10.62;68.12;101730.19;5029140;28;19922;-74
2023/01/07 01:00:40;;;;;;;;;;;;;;;10.78;68.11;101725.38;4995685;28;19921;-74
2023/01/07 01:03:25;;;;;;;;;;;;;;;10.75;67.89;101722.44;5001463;28;19921;-74
2023/01/07 01:06:12;;;;;;;;;;;;;;;10.53;69.27;101729.22;5012423;28;19925;-74
2023/01/07 01:08:57;;;;;;;;;;;;;;;10.72;69.19;101726.53;5027444;28;19918;-74
2023/01/07 01:11:41;;;;;;;;;;;;;;;10.64;68.71;101719.03;5008771;28;19921;-74
2023/01/07 01:14:25;;;;;;;;;;;;;;;10.73;68.26;101725.44;4993378;28;19918;-75
2023/01/07 01:17:10;;;;;;;;;;;;;;;10.54;68.70;101721.88;5000130;28;19917;-74
2023/01/07 01:19:54;;;;;;;;;;;;;;;10.32;69.43;101725.09;5002059;28;19918;-75
2023/01/07 01:22:39;;;;;;;;;;;;;;;10.40;69.20;101723.66;5012623;28;19945;-75
2023/01/07 01:25:23;;;;;;;;;;;;;;;10.60;69.01;101721.53;4975974;28;19918;-74
2023/01/07 01:28:07;;;;;;;;;;;;;;;10.76;68.26;101730.31;4974149;28;19918;-75
2023/01/07 01:30:54;;;;;;;;;;;;;;;10.79;67.86;101727.00;4976400;28;19918;-75
2023/01/07 01:33:41;;;;;;;;;;;;;;;10.86;67.72;101727.47;4976732;28;19930;-75
2023/01/07 01:36:25;;;;;;;;;;;;;;;10.92;67.57;101720.81;4976252;28;19918;-75
2023/01/07 01:39:13;;;;;;;;;;;;;;;10.75;67.51;101725.97;4976625;28;19925;-75
2023/01/07 01:41:58;;;;;;;;;;;;;;;10.70;68.52;101728.75;4982019;28;19921;-75
2023/01/07 01:44:42;;;;;;;;;;;;;;;10.69;68.66;101724.41;4983575;28;20385;-75
2023/01/07 01:47:37;;;;;;;;;;;;;;;10.61;68.90;101723.16;4994147;28;19918;-75
2023/01/07 01:50:28;;;;;;;;;;;;;;;10.72;68.54;101731.97;4995662;28;19918;-75
2023/01/07 01:53:18;;;;;;;;;;;;;;;10.78;68.05;101725.38;4996117;28;19917;-74
2023/01/07 01:56:07;;;;;;;;;;;;;;;10.71;68.21;101724.94;5010778;28;19918;-74
2023/01/07 01:58:54;;;;;;;;;;;;;;;10.80;68.71;101725.09;4996863;28;19917;-74
2023/01/07 02:01:38;;;;;;;;;;;;;;;10.91;67.75;101723.84;4995155;28;20394;-74
2023/01/07 02:04:29;;;;;;;;;;;;;;;10.66;67.94;101722.28;5008580;28;19917;-74
2023/01/07 02:07:15;;;;;;;;;;;;;;;10.75;68.34;101720.53;4984229;28;20389;-74
2023/01/07 02:10:18;;;;;;;;;;;;;;;10.80;68.49;101717.72;4995207;28;19917;-74
2023/01/07 02:13:09;;;;;;;;;;;;;;;10.84;69.10;101713.31;5011719;28;20292;-74
2023/01/07 02:16:00;;;;;;;;;;;;;;;10.80;69.09;101717.72;4995085;28;19918;-74
2023/01/07 02:18:44;;;;;;;;;;;;;;;10.87;69.22;101718.16;4975702;28;19918;-74
2023/01/07 02:21:29;;;;;;;;;;;;;;;10.76;69.61;101716.69;4986661;28;19922;-74
2023/01/07 02:24:22;;;;;;;;;;;;;;;10.71;69.73;101717.59;4993563;28;19917;-74
2023/01/07 02:27:10;;;;;;;;;;;;;;;10.69;69.95;101717.06;5010032;28;20313;-75
2023/01/07 02:29:54;;;;;;;;;;;;;;;10.57;70.20;101713.13;4975189;28;19918;-74
2023/01/07 02:32:51;;;;;;;;;;;;;;;10.64;70.16;101716.31;4975394;28;19918;-74
2023/01/07 02:35:36;;;;;;;;;;;;;;;10.64;70.22;101717.13;4991885;28;19921;-73
2023/01/07 02:38:39;;;;;;;;;;;;;;;10.61;70.19;101700.56;4975494;28;19922;-74
2023/01/07 02:41:42;;;;;;;;;;;;;;;10.45;70.61;101699.13;4993366;28;19926;-74
2023/01/07 02:44:36;;;;;;;;;;;;;;;10.50;70.69;101691.72;4996092;28;19918;-74
2023/01/07 02:47:27;;;;;;;;;;;;;;;10.37;71.21;101703.28;4999835;28;19921;-74
2023/01/07 02:50:12;;;;;;;;;;;;;;;10.37;71.29;101697.03;5014077;28;19917;-74
2023/01/07 02:52:56;;;;;;;;;;;;;;;10.29;71.54;101691.16;5014458;28;19917;-75
2023/01/07 02:56:00;;;;;;;;;;;;;;;10.33;71.58;101687.84;5013786;28;19921;-75
2023/01/07 02:58:51;;;;;;;;;;;;;;;10.40;71.08;101693.75;5014121;28;19933;-74
2023/01/07 03:01:55;;;;;;;;;;;;;;;10.43;71.24;101690.44;5013847;28;19922;-74
2023/01/07 03:04:49;;;;;;;;;;;;;;;10.61;70.56;101690.50;5008423;28;19918;-74
2023/01/07 03:07:47;;;;;;;;;;;;;;;10.66;70.02;101690.44;4998277;28;19918;-74
2023/01/07 03:10:35;;;;;;;;;;;;;;;10.70;69.94;101687.94;5005002;28;19918;-74
2023/01/07 03:13:23;;;;;;;;;;;;;;;10.73;70.21;101688.16;5013682;28;20393;-74
2023/01/07 03:16:14;;;;;;;;;;;;;;;10.73;69.98;101685.44;5013857;28;19917;-74
2023/01/07 03:19:05;;;;;;;;;;;;;;;10.66;68.96;101679.56;5013717;28;19917;-74
2023/01/07 03:21:51;;;;;;;;;;;;;;;10.51;69.16;101685.19;5013469;28;19921;-74
2023/01/07 03:24:37;;;;;;;;;;;;;;;10.50;68.49;101691.72;5010448;28;19922;-73
2023/01/07 03:27:23;;;;;;;;;;;;;;;10.40;68.81;101683.69;4998943;28;19918;-74
2023/01/07 03:30:10;;;;;;;;;;;;;;;10.32;69.23;101672.63;5005050;28;19918;-74
2023/01/07 03:33:08;;;;;;;;;;;;;;;10.32;69.04;101689.75;5013953;28;19917;-74
2023/01/07 03:35:55;;;;;;;;;;;;;;;10.32;68.69;101684.31;5013273;28;20297;-75
2023/01/07 03:38:42;;;;;;;;;;;;;;;10.27;68.19;101685.19;5013258;28;19917;-75
2023/01/07 03:44:32;;;;;;;;;;;;;;;10.35;67.92;101674.78;5013136;28;19917;-74
2023/01/07 03:47:17;;;;;;;;;;;;;;;10.37;68.22;101675.28;5000480;28;19918;-75
2023/01/07 03:50:01;;;;;;;;;;;;;;;10.36;67.72;101674.50;4999388;28;20305;-75
2023/01/07 03:52:47;;;;;;;;;;;;;;;10.29;67.76;101677.56;4976938;28;19918;-74
2023/01/07 03:55:33;;;;;;;;;;;;;;;10.36;67.80;101674.50;4974515;28;20400;-74
2023/01/07 03:58:18;;;;;;;;;;;;;;;10.58;67.34;101669.31;4974286;28;19918;-75
2023/01/07 04:01:03;;;;;;;;;;;;;;;10.50;67.35;101667.25;4977206;28;19918;-74
2023/01/07 04:03:47;;;;;;;;;;;;;;;10.45;67.36;101666.50;4974414;28;19922;-75
2023/01/07 04:06:32;;;;;;;;;;;;;;;10.40;67.49;101666.56;4973718;28;19922;-74
2023/01/07 04:09:17;;;;;;;;;;;;;;;10.38;67.26;101666.84;4987409;28;19917;-75
2023/01/07 04:12:04;;;;;;;;;;;;;;;10.32;67.68;101672.63;4996894;28;19918;-75
2023/01/07 04:14:49;;;;;;;;;;;;;;;10.26;67.97;101669.97;4973552;28;20285;-74
2023/01/07 04:17:33;;;;;;;;;;;;;;;10.07;68.74;101663.63;4973617;28;19918;-75
2023/01/07 04:20:18;;;;;;;;;;;;;;;10.20;68.54;101667.63;4973449;28;19918;-75
2023/01/07 04:23:02;;;;;;;;;;;;;;;10.25;68.66;101664.84;4973588;28;20386;-74
2023/01/07 04:25:48;;;;;;;;;;;;;;;10.29;68.32;101668.59;4973581;28;19918;-74
2023/01/07 04:28:36;;;;;;;;;;;;;;;10.31;68.36;101660.94;4973413;28;19918;-74
2023/01/07 04:31:21;;;;;;;;;;;;;;;10.23;68.51;101661.59;4992444;28;19918;-74
2023/01/07 04:34:05;;;;;;;;;;;;;;;10.35;68.53;101659.28;5001124;28;19918;-74
2023/01/07 04:36:50;;;;;;;;;;;;;;;10.50;68.25;101661.00;4972713;28;19921;-74
2023/01/07 04:39:35;;;;;;;;;;;;;;;10.64;67.94;101653.75;4993116;28;19917;-75
2023/01/07 04:42:20;;;;;;;;;;;;;;;10.68;67.64;101662.94;5004927;28;19922;-75
2023/01/07 04:45:05;;;;;;;;;;;;;;;10.72;67.70;101656.59;5001975;28;19922;-76
2023/01/07 04:47:53;;;;;;;;;;;;;;;10.69;67.86;101657.19;5012365;28;19922;-76
2023/01/07 04:50:38;;;;;;;;;;;;;;;10.46;68.77;101662.69;5008877;28;19926;-76
2023/01/07 04:53:24;;;;;;;;;;;;;;;10.72;68.56;101666.69;5004752;28;20304;-76
2023/01/07 04:56:08;;;;;;;;;;;;;;;10.67;68.59;101664.03;4985865;28;19918;-76
2023/01/07 04:58:53;;;;;;;;;;;;;;;10.71;68.45;101665.09;4973304;28;19918;-76
2023/01/07 05:01:39;;;;;;;;;;;;;;;10.75;68.77;101659.84;4973030;28;19922;-76
2023/01/07 05:04:25;;;;;;;;;;;;;;;10.60;68.64;101669.84;4976194;28;19918;-76
2023/01/07 05:07:10;;;;;;;;;;;;;;;10.36;69.47;101663.63;4981407;28;19922;-76
2023/01/07 05:09:54;;;;;;;;;;;;;;;10.38;69.21;101666.84;4976652;28;19918;-76
2023/01/07 05:12:38;;;;;;;;;;;;;;;10.37;69.36;101662.50;4987062;28;19918;-77
2023/01/07 05:15:25;;;;;;;;;;;;;;;10.29;69.97;101663.97;4985465;28;19918;-76
2023/01/07 05:18:12;;;;;;;;;;;;;;;10.59;69.32;101672.84;4999956;28;19922;-76
2023/01/07 05:20:56;;;;;;;;;;;;;;;10.62;68.90;101667.63;5005581;28;19918;-76
2023/01/07 05:23:41;;;;;;;;;;;;;;;10.48;69.32;101665.91;4987440;28;20368;-76
2023/01/07 05:26:26;;;;;;;;;;;;;;;10.46;69.68;101673.56;5006361;28;19917;-76
2023/01/07 05:29:11;;;;;;;;;;;;;;;10.53;69.44;101668.56;5007873;28;19917;-76
2023/01/07 05:31:58;;;;;;;;;;;;;;;10.66;69.48;101662.44;5020275;28;19917;-76
2023/01/07 05:34:43;;;;;;;;;;;;;;;10.70;69.54;101668.91;5010887;28;19925;-76
2023/01/07 05:37:27;;;;;;;;;;;;;;;10.69;69.50;101668.09;5007978;28;19917;-76
2023/01/07 05:40:13;;;;;;;;;;;;;;;10.72;69.10;101667.50;5003409;28;20397;-76
2023/01/07 05:42:58;;;;;;;;;;;;;;;10.78;69.27;101670.94;4991677;28;19922;-76
2023/01/07 05:45:45;;;;;;;;;;;;;;;10.79;68.72;101672.56;4993401;28;19921;-76
2023/01/07 05:48:30;;;;;;;;;;;;;;;10.74;69.20;101661.75;4994581;28;19918;-76
2023/01/07 05:51:14;;;;;;;;;;;;;;;10.63;69.46;101669.25;4991221;28;19922;-76
2023/01/07 05:53:58;;;;;;;;;;;;;;;10.67;69.60;101672.19;4997983;28;19918;-76
2023/01/07 05:56:43;;;;;;;;;;;;;;;10.49;69.80;101670.25;4994980;28;19918;-76
2023/01/07 05:59:27;;;;;;;;;;;;;;;10.38;70.31;101668.75;4985944;28;19918;-76
2023/01/07 06:02:12;;;;;;;;;;;;;;;10.13;71.56;101673.34;4985930;28;20894;-76
2023/01/07 06:04:56;;;;;;;;;;;;;;;10.35;71.40;101667.44;4989240;28;19917;-77
2023/01/07 06:07:41;;;;;;;;;;;;;;;10.47;70.96;101672.44;4997519;28;19917;-75
2023/01/07 06:10:25;;;;;;;;;;;;;;;10.52;70.96;101669.66;4995001;28;19918;-76
2023/01/07 06:13:10;;;;;;;;;;;;;;;10.54;70.93;101672.91;5000759;28;19918;-76
2023/01/07 06:16:01;;;;;;;;;;;;;;;10.41;71.13;101676.34;5001887;28;20301;-76
2023/01/07 06:18:45;;;;;;;;;;;;;;;10.36;71.18;101679.94;5011778;28;19917;-75
2023/01/07 06:21:30;;;;;;;;;;;;;;;10.26;71.76;101677.31;4996632;28;19917;-75
2023/01/07 06:24:14;;;;;;;;;;;;;;;10.34;71.90;101682.13;4994057;28;19918;-75
2023/01/07 06:26:58;;;;;;;;;;;;;;;10.38;71.64;101676.91;4994966;28;19918;-75
2023/01/07 06:29:43;;;;;;;;;;;;;;;10.44;72.38;101675.75;4994953;28;19918;-76
2023/01/07 06:32:27;;;;;;;;;;;;;;;10.50;72.15;101669.16;4997730;28;19917;-75
2023/01/07 06:35:12;;;;;;;;;;;;;;;10.43;72.04;101672.22;4991596;28;19922;-75
2023/01/07 06:37:56;;;;;;;;;;;;;;;10.29;71.99;101671.31;4986413;28;19918;-75
2023/01/07 06:40:41;;;;;;;;;;;;;;;10.36;72.65;101670.97;4985883;28;19917;-75
2023/01/07 06:43:25;;;;;;;;;;;;;;;10.46;72.46;101674.38;4994455;28;19922;-75
2023/01/07 06:46:09;;;;;;;;;;;;;;;10.46;72.11;101674.38;5009752;28;19918;-75
2023/01/07 06:48:54;;;;;;;;;;;;;;;10.34;72.50;101671.25;4994782;28;19918;-77
2023/01/07 06:51:39;;;;;;;;;;;;;;;10.35;71.94;101672.06;4999804;28;20408;-76
2023/01/07 06:54:23;;;;;;;;;;;;;;;10.32;71.58;101672.63;5010747;28;20384;-76
2023/01/07 06:57:08;;;;;;;;;;;;;;;10.23;72.07;101673.28;4988089;28;19918;-76
2023/01/07 06:59:52;;;;;;;;;;;;;;;10.10;72.81;101668.50;4999432;28;19922;-77
2023/01/07 07:02:36;;;;;;;;;;;;;;;10.16;72.37;101680.94;4991682;28;19926;-76
2023/01/07 07:05:21;;;;;;;;;;;;;;;10.18;72.36;101680.69;4977414;28;19918;-78
2023/01/07 07:08:05;;;;;;;;;;;;;;;9.28;76.30;101674.97;4975224;28;19918;-77
2023/01/07 07:10:49;;;;;;;;;;;;;;;8.80;79.17;101679.31;4991362;28;19922;-79
2023/01/07 07:13:34;;;;;;;;;;;;;;;8.68;79.56;101684.28;5006497;28;19918;-78
2023/01/07 07:16:21;;;;;;;;;;;;;;;8.69;80.48;101681.28;5002105;28;20537;-78
2023/01/07 07:19:06;;;;;;;;;;;;;;;8.69;80.61;101686.69;5005740;28;20301;-78
2023/01/07 07:21:52;;;;;;;;;;;;;;;8.62;80.91;101688.09;4993540;28;20239;-78
2023/01/07 07:24:36;;;;;;;;;;;;;;;8.84;80.77;101683.09;5004426;28;20297;-76
2023/01/07 07:27:22;;;;;;;;;;;;;;;8.53;79.51;101680.53;4984515;28;19941;-79
2023/01/07 07:30:07;;;;;;;;;;;;;;;8.58;79.74;101685.94;5018346;28;19919;-80
2023/01/07 07:32:51;;;;;;;;;;;;;;;8.80;78.36;101676.63;5015533;28;20385;-77
2023/01/07 07:35:36;;;;;;;;;;;;;;;9.04;76.50;101679.47;4982733;28;20298;-76
2023/01/07 07:38:20;;;;;;;;;;;;;;;9.03;75.46;101675.94;5000709;28;19980;-78
2023/01/07 07:41:05;;;;;;;;;;;;;;;9.02;75.93;101679.75;4986129;28;20312;-77
2023/01/07 07:43:50;;;;;;;;;;;;;;;9.13;75.12;101681.31;4982404;28;19922;-77
2023/01/07 07:46:34;;;;;;;;;;;;;;;9.13;74.48;101686.75;4989301;28;19921;-76
2023/01/07 07:49:18;;;;;;;;;;;;;;;9.07;74.07;101685.16;4983305;28;19918;-77
2023/01/07 07:52:03;;;;;;;;;;;;;;;9.18;74.67;101689.41;4988779;28;20300;-76
2023/01/07 07:54:48;;;;;;;;;;;;;;;9.25;74.25;101697.22;4990288;28;20284;-76
2023/01/07 07:57:32;;;;;;;;;;;;;;;9.31;73.98;101688.78;5011633;28;19922;-76
2023/01/07 08:00:16;;;;;;;;;;;;;;;9.40;73.56;101683.53;4988229;28;19918;-76
2023/01/07 08:03:01;;;;;;;;;;;;;;;9.44;73.26;101681.91;4997485;28;20336;-77
2023/01/07 08:05:45;;;;;;;;;;;;;;;9.50;73.29;101677.25;4986216;28;19917;-77
2023/01/07 08:08:30;;;;;;;;;;;;;;;9.38;74.03;101678.41;4988125;28;19918;-77
2023/01/07 08:11:14;;;;;;;;;;;;;;;9.51;73.87;101681.56;4984612;28;19918;-77
2023/01/07 08:13:59;;;;;;;;;;;;;;;9.38;74.40;101681.13;4994772;28;20518;-76
2023/01/07 08:16:43;;;;;;;;;;;;;;;9.50;73.61;101682.69;4984701;28;19922;-77
2023/01/07 08:19:28;;;;;;;;;;;;;;;9.47;73.33;101683.22;4992599;28;19918;-76
2023/01/07 08:22:12;;;;;;;;;;;;;;;9.50;73.50;101678.03;5009729;28;19926;-76
2023/01/07 08:24:57;;;;;;;;;;;;;;;9.26;74.05;101686.09;4992908;28;20320;-76
2023/01/07 08:27:41;;;;;;;;;;;;;;;8.94;74.12;101692.00;4994979;28;19918;-77
2023/01/07 08:30:26;;;;;;;;;;;;;;;8.95;75.55;101693.63;4995611;28;20557;-76
2023/01/07 08:33:10;;;;;;;;;;;;;;;9.17;74.86;101689.69;4973328;28;20390;-77
2023/01/07 08:35:55;;;;;;;;;;;;;;;9.33;75.09;101691.22;4973185;28;19919;-77
2023/01/07 08:38:39;;;;;;;;;;;;;;;9.59;74.49;101697.25;4976961;28;19918;-76
2023/01/07 08:41:24;;;;;;;;;;;;;;;9.38;74.93;101697.41;4976900;28;19918;-76
2023/01/07 08:44:08;;;;;;;;;;;;;;;9.17;74.24;101695.13;4977743;28;20378;-76
2023/01/07 08:46:53;;;;;;;;;;;;;;;9.38;72.64;101696.59;4976454;28;20317;-77
2023/01/07 08:49:37;;;;;;;;;;;;;;;9.52;72.59;101685.91;4991947;28;19918;-76
2023/01/07 08:52:22;;;;;;;;;;;;;;;9.53;71.90;101688.34;4998564;28;19918;-76
2023/01/07 08:55:07;;;;;;;;;;;;;;;9.56;71.35;101686.94;4997999;28;19918;-76
2023/01/07 08:57:52;;;;;;;;;;;;;;;9.63;71.09;101692.88;5003270;28;19917;-76
2023/01/07 09:00:37;;;;;;;;;;;;;;;9.66;70.83;101695.00;4989422;28;19918;-77
2023/01/07 09:03:21;;;;;;;;;;;;;;;9.63;70.58;101687.44;4979646;28;19926;-78
2023/01/07 09:06:05;;;;;;;;;;;;;;;9.21;72.02;101694.28;4976783;28;19922;-78
2023/01/07 09:08:50;;;;;;;;;;;;;;;9.32;71.75;101703.16;4976789;28;19922;-77
2023/01/07 09:11:35;;;;;;;;;;;;;;;9.29;72.05;101695.59;4993595;28;20305;-77
2023/01/07 09:14:19;;;;;;;;;;;;;;;9.47;71.29;101700.31;4993072;28;19918;-78
2023/01/07 09:17:03;;;;;;;;;;;;;;;9.48;70.61;101701.13;4996134;28;19918;-78
2023/01/07 09:19:48;;;;;;;;;;;;;;;9.55;70.54;101696.22;4988072;28;19917;-77
2023/01/07 09:22:33;;;;;;;;;;;;;;;9.63;70.29;101703.72;4987414;28;19930;-77
2023/01/07 09:25:18;;;;;;;;;;;;;;;9.71;69.66;101700.38;4995841;28;19918;-78
2023/01/07 09:28:02;;;;;;;;;;;;;;;9.39;70.65;101709.09;4995847;28;19918;-77
2023/01/07 09:30:46;;;;;;;;;;;;;;;9.37;70.86;101701.22;5000662;28;19918;-77
2023/01/07 09:33:31;;;;;;;;;;;;;;;9.60;70.26;101705.09;5003325;28;19917;-77
2023/01/07 09:36:15;;;;;;;;;;;;;;;9.76;69.53;101703.88;5007391;28;19918;-77
2023/01/07 09:39:00;;;;;;;;;;;;;;;9.72;69.75;101707.44;5008004;28;20292;-78
2023/01/07 09:41:57;;;;;;;;;;;;;;;9.75;69.51;101701.47;4995489;28;19918;-78
2023/01/07 09:44:48;;;;;;;;;;;;;;;9.93;68.00;101702.66;5002951;28;19921;-78
2023/01/07 09:47:35;;;;;;;;;;;;;;;10.02;67.95;101707.16;4977571;28;19918;-78
2023/01/07 09:50:26;;;;;;;;;;;;;;;10.07;68.02;101707.13;4974822;28;20385;-78
2023/01/07 09:53:16;;;;;;;;;;;;;;;10.11;67.57;101708.16;4990597;28;19917;-77
2023/01/07 09:56:04;;;;;;;;;;;;;;;10.11;67.28;101708.16;4988406;28;19918;-78
2023/01/07 09:58:49;;;;;;;;;;;;;;;9.86;68.38;101698.34;4997013;28;19918;-78
2023/01/07 10:01:36;;;;;;;;;;;;;;;9.97;68.03;101699.06;4986135;28;19921;-78
2023/01/07 10:04:44;;;;;;;;;;;;;;;9.88;67.83;101707.03;4995091;28;19921;-78
2023/01/07 10:07:43;;;;;;;;;;;;;;;9.99;67.76;101691.44;5009294;28;19917;-79
2023/01/07 10:10:46;;;;;;;;;;;;;;;9.76;67.92;101684.06;4994587;28;19918;-78
2023/01/07 10:13:53;;;;;;;;;;;;;;;9.65;68.19;101679.84;5005404;28;19925;-78
2023/01/07 10:16:46;;;;;;;;;;;;;;;9.69;68.37;101675.44;5006060;28;19921;-78
2023/01/07 10:19:39;;;;;;;;;;;;;;;10.01;67.64;101672.94;4984893;28;19918;-78
2023/01/07 10:22:34;;;;;;;;;;;;;;;10.12;67.16;101679.88;4975587;28;19918;-78
2023/01/07 10:25:20;;;;;;;;;;;;;;;10.26;66.33;101669.97;4999403;28;20381;-78
2023/01/07 10:28:06;;;;;;;;;;;;;;;10.31;65.33;101673.75;4989564;28;19918;-78
2023/01/07 10:30:51;;;;;;;;;;;;;;;10.35;65.09;101667.44;4993440;28;19918;-78
2023/01/07 10:33:35;;;;;;;;;;;;;;;10.28;65.39;101673.22;4994708;28;20305;-78
2023/01/07 10:36:22;;;;;;;;;;;;;;;10.44;64.66;101659.44;4997699;28;19917;-78
2023/01/07 10:39:07;;;;;;;;;;;;;;;10.41;65.52;101658.13;5005094;28;20393;-78
2023/01/07 10:42:04;;;;;;;;;;;;;;;10.46;65.21;101663.50;5006481;28;19921;-78
2023/01/07 10:44:56;;;;;;;;;;;;;;;10.43;66.03;101655.09;4982701;28;19922;-78
2023/01/07 10:47:47;;;;;;;;;;;;;;;10.40;64.89;101647.53;5001917;28;19918;-78
2023/01/07 10:50:50;;;;;;;;;;;;;;;10.39;65.25;101640.47;4976010;28;19926;-78
2023/01/07 10:53:53;;;;;;;;;;;;;;;10.52;65.08;101642.47;4974865;28;19918;-78
2023/01/07 10:56:43;;;;;;;;;;;;;;;10.60;65.48;101641.84;4975069;28;19922;-78
2023/01/07 10:59:28;;;;;;;;;;;;;;;10.52;65.48;101640.56;4983738;28;19922;-79
2023/01/07 11:02:15;;;;;;;;;;;;;;;10.52;65.82;101632.41;4998122;28;19918;-78
2023/01/07 11:05:00;;;;;;;;;;;;;;;10.55;64.79;101628.31;5002224;28;19918;-78
2023/01/07 11:07:47;;;;;;;;;;;;;;;10.44;63.99;101621.38;5001293;28;19918;-78
2023/01/07 11:10:34;;;;;;;;;;;;;;;10.27;64.93;101622.66;4996706;28;20389;-79
2023/01/07 11:13:21;;;;;;;;;;;;;;;10.26;64.81;101618.31;5006897;28;19918;-79
2023/01/07 11:16:09;;;;;;;;;;;;;;;10.51;64.22;101611.78;4989973;28;19918;-79
2023/01/07 11:19:03;;;;;;;;;;;;;;;10.58;64.01;101611.38;5003549;28;19921;-80
2023/01/07 11:21:48;;;;;;;;;;;;;;;10.70;63.69;101604.44;4988860;28;19917;-77
2023/01/07 11:24:34;;;;;;;;;;;;;;;10.76;62.93;101591.56;4991170;28;20296;-77
2023/01/07 11:27:19;;;;;;;;;;;;;;;10.65;63.75;101595.53;4983001;28;19917;-78
2023/01/07 11:30:19;;;;;;;;;;;;;;;10.66;63.73;101589.00;4983281;28;20539;-78
2023/01/07 11:33:05;;;;;;;;;;;;;;;10.51;63.72;101589.19;4988156;28;19918;-78
2023/01/07 11:35:54;;;;;;;;;;;;;;;10.58;63.12;101590.44;4976385;28;19918;-79
2023/01/07 11:38:39;;;;;;;;;;;;;;;10.65;62.95;101587.38;4974210;28;19918;-78
2023/01/07 11:41:24;;;;;;;;;;;;;;;10.24;65.13;101579.75;4974041;28;19918;-78
2023/01/07 11:44:14;;;;;;;;;;;;;;;10.33;63.57;101576.38;4983274;28;19921;-79
2023/01/07 11:46:58;;;;;;;;;;;;;;;10.48;63.51;101573.47;4981736;28;19918;-79
2023/01/07 11:49:44;;;;;;;;;;;;;;;10.13;64.91;101570.09;4973545;28;20374;-78
2023/01/07 11:52:28;;;;;;;;;;;;;;;9.98;65.56;101567.56;4980609;28;20393;-78
2023/01/07 11:55:17;;;;;;;;;;;;;;;9.96;64.83;101558.88;4993208;28;19918;-78
2023/01/07 11:58:01;;;;;;;;;;;;;;;10.15;64.87;101554.31;4986984;28;19918;-78
2023/01/07 12:01:01;;;;;;;;;;;;;;;9.82;66.10;101555.25;4981249;28;19918;-78
2023/01/07 12:03:51;;;;;;;;;;;;;;;9.86;65.40;101551.66;4979659;28;19925;-78
2023/01/07 12:06:37;;;;;;;;;;;;;;;9.78;65.81;101540.63;4990797;28;19918;-78
2023/01/07 12:09:31;;;;;;;;;;;;;;;9.91;65.53;101537.19;4987623;28;19918;-79
2023/01/07 12:12:30;;;;;;;;;;;;;;;9.72;65.81;101537.16;4980758;28;19918;-79
2023/01/07 12:15:15;;;;;;;;;;;;;;;9.77;65.89;101531.66;4992676;28;19918;-78
2023/01/07 12:18:02;;;;;;;;;;;;;;;10.17;65.11;101533.09;4973535;28;19918;-78
2023/01/07 12:20:46;;;;;;;;;;;;;;;9.88;66.25;101521.50;4973243;28;19917;-78
2023/01/07 12:23:31;;;;;;;;;;;;;;;10.00;65.43;101519.19;4972635;28;19922;-78
2023/01/07 12:26:15;;;;;;;;;;;;;;;9.97;65.45;101517.03;4973348;28;19918;-78
2023/01/07 12:29:15;;;;;;;;;;;;;;;9.88;65.79;101516.88;4984607;28;20446;-78
2023/01/07 12:32:00;;;;;;;;;;;;;;;10.07;65.19;101514.19;5003923;28;19917;-78
2023/01/07 12:34:56;;;;;;;;;;;;;;;9.82;66.26;101514.50;4981087;28;19922;-78
2023/01/07 12:37:52;;;;;;;;;;;;;;;10.13;65.45;101506.75;4991403;28;19918;-78
2023/01/07 12:40:40;;;;;;;;;;;;;;;10.21;65.06;101504.22;4984109;28;19918;-78
2023/01/07 12:43:38;;;;;;;;;;;;;;;10.09;65.59;101497.59;4987002;28;19930;-77
2023/01/07 12:46:24;;;;;;;;;;;;;;;10.33;64.87;101495.63;4982705;28;19918;-76
2023/01/07 12:49:20;;;;;;;;;;;;;;;10.33;65.02;101500.25;4983811;28;19918;-75
2023/01/07 12:52:07;;;;;;;;;;;;;;;10.23;65.03;101502.03;4976161;28;19922;-74
2023/01/07 12:54:54;;;;;;;;;;;;;;;10.44;64.35;101496.31;4986441;28;19918;-75
2023/01/07 12:57:40;;;;;;;;;;;;;;;10.24;65.23;101495.50;4992902;28;19925;-75
2023/01/07 13:00:26;;;;;;;;;;;;;;;10.09;65.50;101492.97;4998666;28;19918;-74
2023/01/07 13:03:24;;;;;;;;;;;;;;;10.06;65.62;101490.00;4987395;28;19922;-75
2023/01/07 13:06:18;;;;;;;;;;;;;;;10.31;65.12;101483.47;4988389;28;19918;-75
2023/01/07 13:09:12;;;;;;;;;;;;;;;10.23;64.84;101485.72;4987326;28;19926;-75
2023/01/07 13:15:11;;;;;;;;;;;;;;;10.25;66.91;101488.97;4997175;28;19918;-77
2023/01/07 13:17:56;;;;;;;;;;;;;;;10.40;65.58;101479.78;4982684;28;19926;-75
2023/01/07 13:20:54;;;;;;;;;;;;;;;10.49;64.92;101467.13;4980017;28;20308;-76
2023/01/07 13:23:46;;;;;;;;;;;;;;;10.47;64.38;101473.94;4982278;28;19922;-76
2023/01/07 13:26:56;;;;;;;;;;;;;;;9.95;66.57;101467.63;4986017;28;19922;-76
2023/01/07 13:29:40;;;;;;;;;;;;;;;10.19;65.53;101467.59;5012754;28;19921;-78
2023/01/07 13:32:36;;;;;;;;;;;;;;;9.98;66.34;101463.50;4998087;28;20001;-77
2023/01/07 13:35:40;;;;;;;;;;;;;;;9.79;66.46;101458.06;4988641;28;19918;-78
2023/01/07 13:38:25;;;;;;;;;;;;;;;9.85;66.59;101459.59;4990272;28;19929;-80
2023/01/07 13:41:18;;;;;;;;;;;;;;;9.74;67.14;101455.41;4979991;28;19922;-78
2023/01/07 13:44:14;;;;;;;;;;;;;;;9.50;67.72;101460.06;4988551;28;19926;-77
2023/01/07 13:47:01;;;;;;;;;;;;;;;9.39;68.73;101467.50;4986160;28;19918;-77
2023/01/07 13:49:53;;;;;;;;;;;;;;;9.59;68.33;101458.31;4992692;28;20332;-78
2023/01/07 13:52:42;;;;;;;;;;;;;;;9.89;67.43;101455.19;4989096;28;20384;-77
2023/01/07 13:55:26;;;;;;;;;;;;;;;9.81;67.15;101450.41;4990862;28;20343;-76
2023/01/07 13:58:33;;;;;;;;;;;;;;;9.81;67.02;101451.22;4991197;28;19918;-78
2023/01/07 14:01:20;;;;;;;;;;;;;;;9.79;68.05;101463.50;4991230;28;20389;-76
2023/01/07 14:04:07;;;;;;;;;;;;;;;10.00;67.18;101458.59;4990965;28;19925;-75
2023/01/07 14:06:52;;;;;;;;;;;;;;;10.07;67.03;101454.41;4992148;28;19917;-74
2023/01/07 14:09:37;;;;;;;;;;;;;;;10.11;66.44;101460.03;4985373;28;19917;-76
2023/01/07 14:12:41;;;;;;;;;;;;;;;10.21;66.32;101455.31;4991715;28;19921;-74
2023/01/07 14:15:32;;;;;;;;;;;;;;;10.19;66.24;101471.13;4985755;28;19926;-75
2023/01/07 14:18:35;;;;;;;;;;;;;;;10.34;66.30;101470.06;4993975;28;19918;-79
2023/01/07 14:21:39;;;;;;;;;;;;;;;10.40;65.73;101468.09;4993405;28;19917;-75
2023/01/07 14:24:26;;;;;;;;;;;;;;;10.39;65.84;101466.47;4994566;28;19922;-75
2023/01/07 14:27:26;;;;;;;;;;;;;;;10.46;65.48;101464.19;5004720;28;20505;-75
2023/01/07 14:30:15;;;;;;;;;;;;;;;10.40;66.05;101468.09;4982051;28;19922;-75